sensor_id;sensor_type;location;lat;lon;timestamp;P1;durP1;ratioP1;P2;durP2;ratioP2
33678;SDS011;23143;49.474;11.082;2023-02-24T00:00:25;18.42;;;9.68;;
33678;SDS011;23143;49.474;11.082;2023-02-24T00:01:09;18.40;;;9.32;;
33678;SDS011;23143;49.474;11.082;2023-02-24T00:01:45;20.08;;;9.27;;
33678;SDS011;23143;49.474;11.082;2023-02-24T00:02:20;22.33;;;9.80;;
33678;SDS011;23143;49.474;11.082;2023-02-24T00:02:51;21.23;;;10.07;;
33678;SDS011;23143;49.474;11.082;2023-02-24T00:03:21;22.63;;;9.68;;
33678;SDS011;23143;49.474;11.082;2023-02-24T00:04:36;19.10;;;10.55;;
33678;SDS011;23143;49.474;11.082;2023-02-24T00:05:08;17.77;;;9.77;;
33678;SDS011;23143;49.474;11.082;2023-02-24T00:05:39;19.23;;;10.20;;
33678;SDS011;23143;49.474;11.082;2023-02-24T00:06:11;20.55;;;9.25;;
33678;SDS011;23143;49.474;11.082;2023-02-24T00:06:42;21.92;;;9.18;;
33678;SDS011;23143;49.474;11.082;2023-02-24T00:07:13;21.52;;;9.20;;
33678;SDS011;23143;49.474;11.082;2023-02-24T00:07:45;18.92;;;9.07;;
33678;SDS011;23143;49.474;11.082;2023-02-24T00:08:16;18.70;;;9.52;;
33678;SDS011;23143;49.474;11.082;2023-02-24T00:08:47;19.52;;;10.40;;
33678;SDS011;23143;49.474;11.082;2023-02-24T00:09:18;25.38;;;10.35;;
33678;SDS011;23143;49.474;11.082;2023-02-24T00:09:50;21.52;;;11.57;;
33678;SDS011;23143;49.474;11.082;2023-02-24T00:10:21;20.02;;;10.65;;
33678;SDS011;23143;49.474;11.082;2023-02-24T00:10:51;22.83;;;10.23;;
33678;SDS011;23143;49.474;11.082;2023-02-24T00:11:22;18.67;;;9.63;;
33678;SDS011;23143;49.474;11.082;2023-02-24T00:11:54;22.55;;;9.82;;
33678;SDS011;23143;49.474;11.082;2023-02-24T00:12:26;21.65;;;9.88;;
33678;SDS011;23143;49.474;11.082;2023-02-24T00:12:58;20.30;;;10.32;;
33678;SDS011;23143;49.474;11.082;2023-02-24T00:13:28;19.77;;;9.93;;
33678;SDS011;23143;49.474;11.082;2023-02-24T00:13:59;20.70;;;9.57;;
33678;SDS011;23143;49.474;11.082;2023-02-24T00:14:31;22.95;;;10.88;;
33678;SDS011;23143;49.474;11.082;2023-02-24T00:15:03;20.42;;;9.88;;
33678;SDS011;23143;49.474;11.082;2023-02-24T00:15:34;22.85;;;10.95;;
33678;SDS011;23143;49.474;11.082;2023-02-24T00:16:05;20.33;;;9.77;;
33678;SDS011;23143;49.474;11.082;2023-02-24T00:16:36;21.08;;;10.80;;
33678;SDS011;23143;49.474;11.082;2023-02-24T00:17:07;20.63;;;9.77;;
33678;SDS011;23143;49.474;11.082;2023-02-24T00:17:38;22.58;;;9.77;;
33678;SDS011;23143;49.474;11.082;2023-02-24T00:18:09;20.75;;;9.98;;
33678;SDS011;23143;49.474;11.082;2023-02-24T00:18:39;22.20;;;9.85;;
33678;SDS011;23143;49.474;11.082;2023-02-24T00:19:11;30.05;;;10.57;;
33678;SDS011;23143;49.474;11.082;2023-02-24T00:19:43;22.73;;;10.60;;
33678;SDS011;23143;49.474;11.082;2023-02-24T00:20:15;26.20;;;11.27;;
33678;SDS011;23143;49.474;11.082;2023-02-24T00:20:47;23.35;;;11.07;;
33678;SDS011;23143;49.474;11.082;2023-02-24T00:21:18;20.23;;;9.93;;
33678;SDS011;23143;49.474;11.082;2023-02-24T00:21:49;18.65;;;9.68;;
33678;SDS011;23143;49.474;11.082;2023-02-24T00:22:21;28.00;;;10.95;;
33678;SDS011;23143;49.474;11.082;2023-02-24T00:22:51;26.75;;;10.70;;
33678;SDS011;23143;49.474;11.082;2023-02-24T00:23:22;22.20;;;10.27;;
33678;SDS011;23143;49.474;11.082;2023-02-24T00:23:53;23.02;;;10.00;;
33678;SDS011;23143;49.474;11.082;2023-02-24T00:24:24;29.48;;;10.18;;
33678;SDS011;23143;49.474;11.082;2023-02-24T00:24:55;20.15;;;10.82;;
33678;SDS011;23143;49.474;11.082;2023-02-24T00:25:30;24.77;;;10.63;;
33678;SDS011;23143;49.474;11.082;2023-02-24T00:26:00;24.45;;;11.48;;
33678;SDS011;23143;49.474;11.082;2023-02-24T00:26:31;22.52;;;11.23;;
33678;SDS011;23143;49.474;11.082;2023-02-24T00:27:03;23.40;;;10.27;;
33678;SDS011;23143;49.474;11.082;2023-02-24T00:27:40;22.25;;;10.40;;
33678;SDS011;23143;49.474;11.082;2023-02-24T00:28:11;23.30;;;11.57;;
33678;SDS011;23143;49.474;11.082;2023-02-24T00:28:43;28.00;;;10.98;;
33678;SDS011;23143;49.474;11.082;2023-02-24T00:29:14;20.45;;;11.45;;
33678;SDS011;23143;49.474;11.082;2023-02-24T00:29:44;19.95;;;10.27;;
33678;SDS011;23143;49.474;11.082;2023-02-24T00:30:16;18.35;;;10.18;;
33678;SDS011;23143;49.474;11.082;2023-02-24T00:30:47;22.17;;;11.27;;
33678;SDS011;23143;49.474;11.082;2023-02-24T00:31:18;27.20;;;10.65;;
33678;SDS011;23143;49.474;11.082;2023-02-24T00:31:50;23.45;;;11.05;;
33678;SDS011;23143;49.474;11.082;2023-02-24T00:32:29;24.55;;;10.75;;
33678;SDS011;23143;49.474;11.082;2023-02-24T00:32:59;22.55;;;10.02;;
33678;SDS011;23143;49.474;11.082;2023-02-24T00:33:33;29.30;;;10.75;;
33678;SDS011;23143;49.474;11.082;2023-02-24T00:34:04;21.40;;;11.27;;
33678;SDS011;23143;49.474;11.082;2023-02-24T00:34:35;18.75;;;10.55;;
33678;SDS011;23143;49.474;11.082;2023-02-24T00:35:06;26.60;;;11.43;;
33678;SDS011;23143;49.474;11.082;2023-02-24T00:35:38;20.92;;;10.20;;
33678;SDS011;23143;49.474;11.082;2023-02-24T00:36:44;21.77;;;10.73;;
33678;SDS011;23143;49.474;11.082;2023-02-24T00:37:14;23.38;;;11.23;;
33678;SDS011;23143;49.474;11.082;2023-02-24T00:37:45;17.92;;;9.43;;
33678;SDS011;23143;49.474;11.082;2023-02-24T00:38:20;20.77;;;9.95;;
33678;SDS011;23143;49.474;11.082;2023-02-24T00:38:53;19.17;;;10.75;;
33678;SDS011;23143;49.474;11.082;2023-02-24T00:39:28;25.33;;;10.40;;
33678;SDS011;23143;49.474;11.082;2023-02-24T00:40:04;21.92;;;10.40;;
33678;SDS011;23143;49.474;11.082;2023-02-24T00:40:40;18.40;;;10.55;;
33678;SDS011;23143;49.474;11.082;2023-02-24T00:41:15;21.42;;;10.25;;
33678;SDS011;23143;49.474;11.082;2023-02-24T00:41:47;25.13;;;11.18;;
33678;SDS011;23143;49.474;11.082;2023-02-24T00:42:18;28.30;;;11.13;;
33678;SDS011;23143;49.474;11.082;2023-02-24T00:42:48;23.13;;;11.30;;
33678;SDS011;23143;49.474;11.082;2023-02-24T00:43:19;20.35;;;10.77;;
33678;SDS011;23143;49.474;11.082;2023-02-24T00:43:50;26.70;;;11.05;;
33678;SDS011;23143;49.474;11.082;2023-02-24T00:44:20;23.45;;;11.55;;
33678;SDS011;23143;49.474;11.082;2023-02-24T00:44:53;26.02;;;11.98;;
33678;SDS011;23143;49.474;11.082;2023-02-24T00:45:24;25.58;;;11.38;;
33678;SDS011;23143;49.474;11.082;2023-02-24T00:45:55;24.58;;;11.32;;
33678;SDS011;23143;49.474;11.082;2023-02-24T00:46:25;24.92;;;10.52;;
33678;SDS011;23143;49.474;11.082;2023-02-24T00:47:01;20.92;;;10.77;;
33678;SDS011;23143;49.474;11.082;2023-02-24T00:47:35;19.65;;;10.27;;
33678;SDS011;23143;49.474;11.082;2023-02-24T00:48:07;21.02;;;11.43;;
33678;SDS011;23143;49.474;11.082;2023-02-24T00:48:39;19.85;;;9.60;;
33678;SDS011;23143;49.474;11.082;2023-02-24T00:49:12;30.10;;;11.95;;
33678;SDS011;23143;49.474;11.082;2023-02-24T00:49:45;29.23;;;11.32;;
33678;SDS011;23143;49.474;11.082;2023-02-24T00:50:17;20.85;;;11.27;;
33678;SDS011;23143;49.474;11.082;2023-02-24T00:50:48;19.52;;;10.20;;
33678;SDS011;23143;49.474;11.082;2023-02-24T00:51:18;29.58;;;11.80;;
33678;SDS011;23143;49.474;11.082;2023-02-24T00:51:52;25.23;;;11.40;;
33678;SDS011;23143;49.474;11.082;2023-02-24T00:52:23;20.77;;;10.95;;
33678;SDS011;23143;49.474;11.082;2023-02-24T00:52:56;22.88;;;11.25;;
33678;SDS011;23143;49.474;11.082;2023-02-24T00:53:27;24.05;;;12.05;;
33678;SDS011;23143;49.474;11.082;2023-02-24T00:53:58;18.65;;;9.73;;
33678;SDS011;23143;49.474;11.082;2023-02-24T00:54:29;26.85;;;11.25;;
33678;SDS011;23143;49.474;11.082;2023-02-24T00:55:00;23.75;;;11.27;;
33678;SDS011;23143;49.474;11.082;2023-02-24T00:55:30;26.83;;;11.55;;
33678;SDS011;23143;49.474;11.082;2023-02-24T00:56:05;27.58;;;10.98;;
33678;SDS011;23143;49.474;11.082;2023-02-24T00:56:41;21.63;;;11.10;;
33678;SDS011;23143;49.474;11.082;2023-02-24T00:57:14;26.10;;;9.98;;
33678;SDS011;23143;49.474;11.082;2023-02-24T00:57:47;25.52;;;10.27;;
33678;SDS011;23143;49.474;11.082;2023-02-24T00:58:21;20.17;;;10.45;;
33678;SDS011;23143;49.474;11.082;2023-02-24T00:58:52;25.27;;;11.07;;
33678;SDS011;23143;49.474;11.082;2023-02-24T00:59:24;22.77;;;11.00;;
33678;SDS011;23143;49.474;11.082;2023-02-24T00:59:55;21.52;;;11.40;;
33678;SDS011;23143;49.474;11.082;2023-02-24T01:00:27;26.60;;;12.05;;
33678;SDS011;23143;49.474;11.082;2023-02-24T01:00:59;27.00;;;11.45;;
33678;SDS011;23143;49.474;11.082;2023-02-24T01:01:31;25.50;;;11.52;;
33678;SDS011;23143;49.474;11.082;2023-02-24T01:02:03;28.50;;;11.73;;
33678;SDS011;23143;49.474;11.082;2023-02-24T01:02:36;25.90;;;12.10;;
33678;SDS011;23143;49.474;11.082;2023-02-24T01:03:07;26.80;;;11.15;;
33678;SDS011;23143;49.474;11.082;2023-02-24T01:03:38;25.60;;;11.98;;
33678;SDS011;23143;49.474;11.082;2023-02-24T01:04:09;22.60;;;10.55;;
33678;SDS011;23143;49.474;11.082;2023-02-24T01:04:42;23.52;;;12.13;;
33678;SDS011;23143;49.474;11.082;2023-02-24T01:05:13;27.48;;;12.45;;
33678;SDS011;23143;49.474;11.082;2023-02-24T01:05:44;30.42;;;11.90;;
33678;SDS011;23143;49.474;11.082;2023-02-24T01:06:16;25.02;;;11.60;;
33678;SDS011;23143;49.474;11.082;2023-02-24T01:06:51;26.35;;;11.82;;
33678;SDS011;23143;49.474;11.082;2023-02-24T01:07:29;26.30;;;11.30;;
33678;SDS011;23143;49.474;11.082;2023-02-24T01:08:00;25.33;;;11.45;;
33678;SDS011;23143;49.474;11.082;2023-02-24T01:08:31;21.38;;;11.23;;
33678;SDS011;23143;49.474;11.082;2023-02-24T01:09:05;28.48;;;12.32;;
33678;SDS011;23143;49.474;11.082;2023-02-24T01:09:41;27.23;;;11.80;;
33678;SDS011;23143;49.474;11.082;2023-02-24T01:10:12;21.02;;;11.20;;
33678;SDS011;23143;49.474;11.082;2023-02-24T01:10:43;23.08;;;11.02;;
33678;SDS011;23143;49.474;11.082;2023-02-24T01:11:34;24.02;;;10.20;;
33678;SDS011;23143;49.474;11.082;2023-02-24T01:12:24;23.88;;;12.63;;
33678;SDS011;23143;49.474;11.082;2023-02-24T01:13:04;25.58;;;11.40;;
33678;SDS011;23143;49.474;11.082;2023-02-24T01:13:34;25.52;;;12.30;;
33678;SDS011;23143;49.474;11.082;2023-02-24T01:14:24;22.63;;;11.98;;
33678;SDS011;23143;49.474;11.082;2023-02-24T01:14:58;26.15;;;12.68;;
33678;SDS011;23143;49.474;11.082;2023-02-24T01:15:28;21.35;;;10.93;;
33678;SDS011;23143;49.474;11.082;2023-02-24T01:15:59;23.33;;;11.88;;
33678;SDS011;23143;49.474;11.082;2023-02-24T01:16:33;31.70;;;13.05;;
33678;SDS011;23143;49.474;11.082;2023-02-24T01:17:04;25.10;;;11.65;;
33678;SDS011;23143;49.474;11.082;2023-02-24T01:17:36;19.85;;;11.05;;
33678;SDS011;23143;49.474;11.082;2023-02-24T01:18:09;21.00;;;10.75;;
33678;SDS011;23143;49.474;11.082;2023-02-24T01:18:40;27.15;;;11.48;;
33678;SDS011;23143;49.474;11.082;2023-02-24T01:19:11;24.42;;;10.85;;
33678;SDS011;23143;49.474;11.082;2023-02-24T01:19:41;24.33;;;11.27;;
33678;SDS011;23143;49.474;11.082;2023-02-24T01:20:13;20.80;;;10.80;;
33678;SDS011;23143;49.474;11.082;2023-02-24T01:20:47;25.73;;;11.77;;
33678;SDS011;23143;49.474;11.082;2023-02-24T01:21:18;21.13;;;10.25;;
33678;SDS011;23143;49.474;11.082;2023-02-24T01:21:49;20.88;;;11.07;;
33678;SDS011;23143;49.474;11.082;2023-02-24T01:22:24;22.50;;;12.10;;
33678;SDS011;23143;49.474;11.082;2023-02-24T01:22:55;29.77;;;12.27;;
33678;SDS011;23143;49.474;11.082;2023-02-24T01:23:26;32.90;;;12.20;;
33678;SDS011;23143;49.474;11.082;2023-02-24T01:23:57;21.77;;;11.02;;
33678;SDS011;23143;49.474;11.082;2023-02-24T01:24:30;25.25;;;11.30;;
33678;SDS011;23143;49.474;11.082;2023-02-24T01:25:02;24.17;;;10.77;;
33678;SDS011;23143;49.474;11.082;2023-02-24T01:25:32;26.23;;;11.52;;
33678;SDS011;23143;49.474;11.082;2023-02-24T01:26:03;21.15;;;10.63;;
33678;SDS011;23143;49.474;11.082;2023-02-24T01:26:34;23.95;;;12.23;;
33678;SDS011;23143;49.474;11.082;2023-02-24T01:27:05;26.67;;;11.30;;
33678;SDS011;23143;49.474;11.082;2023-02-24T01:27:36;26.00;;;11.48;;
33678;SDS011;23143;49.474;11.082;2023-02-24T01:28:09;22.70;;;11.85;;
33678;SDS011;23143;49.474;11.082;2023-02-24T01:28:41;27.67;;;11.70;;
33678;SDS011;23143;49.474;11.082;2023-02-24T01:29:12;20.73;;;11.27;;
33678;SDS011;23143;49.474;11.082;2023-02-24T01:29:44;24.40;;;11.52;;
33678;SDS011;23143;49.474;11.082;2023-02-24T01:30:15;27.55;;;12.48;;
33678;SDS011;23143;49.474;11.082;2023-02-24T01:30:47;25.77;;;11.30;;
33678;SDS011;23143;49.474;11.082;2023-02-24T01:31:18;29.08;;;12.32;;
33678;SDS011;23143;49.474;11.082;2023-02-24T01:31:49;24.17;;;12.23;;
33678;SDS011;23143;49.474;11.082;2023-02-24T01:32:20;22.83;;;11.98;;
33678;SDS011;23143;49.474;11.082;2023-02-24T01:32:51;25.23;;;11.15;;
33678;SDS011;23143;49.474;11.082;2023-02-24T01:33:22;23.60;;;11.82;;
33678;SDS011;23143;49.474;11.082;2023-02-24T01:33:53;24.15;;;11.68;;
33678;SDS011;23143;49.474;11.082;2023-02-24T01:34:24;27.75;;;12.23;;
33678;SDS011;23143;49.474;11.082;2023-02-24T01:34:56;25.25;;;11.55;;
33678;SDS011;23143;49.474;11.082;2023-02-24T01:35:26;23.95;;;11.77;;
33678;SDS011;23143;49.474;11.082;2023-02-24T01:35:57;20.40;;;10.10;;
33678;SDS011;23143;49.474;11.082;2023-02-24T01:36:41;25.70;;;11.52;;
33678;SDS011;23143;49.474;11.082;2023-02-24T01:37:12;23.48;;;11.57;;
33678;SDS011;23143;49.474;11.082;2023-02-24T01:37:48;21.80;;;11.45;;
33678;SDS011;23143;49.474;11.082;2023-02-24T01:38:18;27.30;;;10.75;;
33678;SDS011;23143;49.474;11.082;2023-02-24T01:38:52;24.67;;;12.52;;
33678;SDS011;23143;49.474;11.082;2023-02-24T01:39:22;22.27;;;11.38;;
33678;SDS011;23143;49.474;11.082;2023-02-24T01:39:54;24.67;;;10.73;;
33678;SDS011;23143;49.474;11.082;2023-02-24T01:40:25;22.02;;;10.60;;
33678;SDS011;23143;49.474;11.082;2023-02-24T01:40:57;24.17;;;10.70;;
33678;SDS011;23143;49.474;11.082;2023-02-24T01:41:28;25.40;;;10.98;;
33678;SDS011;23143;49.474;11.082;2023-02-24T01:42:00;25.88;;;12.35;;
33678;SDS011;23143;49.474;11.082;2023-02-24T01:42:33;25.85;;;12.60;;
33678;SDS011;23143;49.474;11.082;2023-02-24T01:43:04;23.45;;;10.18;;
33678;SDS011;23143;49.474;11.082;2023-02-24T01:45:09;30.08;;;11.15;;
33678;SDS011;23143;49.474;11.082;2023-02-24T01:45:42;28.35;;;12.10;;
33678;SDS011;23143;49.474;11.082;2023-02-24T01:46:12;28.02;;;10.93;;
33678;SDS011;23143;49.474;11.082;2023-02-24T01:46:44;25.88;;;11.93;;
33678;SDS011;23143;49.474;11.082;2023-02-24T01:47:16;27.77;;;11.85;;
33678;SDS011;23143;49.474;11.082;2023-02-24T01:47:51;25.15;;;11.40;;
33678;SDS011;23143;49.474;11.082;2023-02-24T01:48:22;30.35;;;11.73;;
33678;SDS011;23143;49.474;11.082;2023-02-24T01:48:55;28.45;;;12.90;;
33678;SDS011;23143;49.474;11.082;2023-02-24T01:49:58;24.38;;;11.77;;
33678;SDS011;23143;49.474;11.082;2023-02-24T01:50:32;24.60;;;12.60;;
33678;SDS011;23143;49.474;11.082;2023-02-24T01:51:04;25.67;;;11.60;;
33678;SDS011;23143;49.474;11.082;2023-02-24T01:51:38;25.70;;;12.23;;
33678;SDS011;23143;49.474;11.082;2023-02-24T01:52:55;26.17;;;12.30;;
33678;SDS011;23143;49.474;11.082;2023-02-24T01:53:27;28.05;;;12.45;;
33678;SDS011;23143;49.474;11.082;2023-02-24T01:53:59;24.23;;;11.52;;
33678;SDS011;23143;49.474;11.082;2023-02-24T01:54:34;25.05;;;12.45;;
33678;SDS011;23143;49.474;11.082;2023-02-24T01:55:19;22.33;;;11.18;;
33678;SDS011;23143;49.474;11.082;2023-02-24T01:55:52;23.55;;;11.68;;
33678;SDS011;23143;49.474;11.082;2023-02-24T01:56:23;27.33;;;12.68;;
33678;SDS011;23143;49.474;11.082;2023-02-24T01:56:54;24.25;;;12.50;;
33678;SDS011;23143;49.474;11.082;2023-02-24T01:57:28;27.65;;;12.48;;
33678;SDS011;23143;49.474;11.082;2023-02-24T01:58:03;27.42;;;11.70;;
33678;SDS011;23143;49.474;11.082;2023-02-24T01:58:37;30.80;;;13.48;;
33678;SDS011;23143;49.474;11.082;2023-02-24T01:59:07;30.40;;;12.25;;
33678;SDS011;23143;49.474;11.082;2023-02-24T01:59:38;25.30;;;12.32;;
33678;SDS011;23143;49.474;11.082;2023-02-24T02:00:09;24.52;;;11.65;;
33678;SDS011;23143;49.474;11.082;2023-02-24T02:00:48;27.85;;;12.13;;
33678;SDS011;23143;49.474;11.082;2023-02-24T02:01:20;29.50;;;12.50;;
33678;SDS011;23143;49.474;11.082;2023-02-24T02:01:51;28.65;;;13.80;;
33678;SDS011;23143;49.474;11.082;2023-02-24T02:02:24;32.47;;;12.27;;
33678;SDS011;23143;49.474;11.082;2023-02-24T02:02:56;26.38;;;12.35;;
33678;SDS011;23143;49.474;11.082;2023-02-24T02:03:30;23.33;;;11.93;;
33678;SDS011;23143;49.474;11.082;2023-02-24T02:04:03;27.27;;;12.70;;
33678;SDS011;23143;49.474;11.082;2023-02-24T02:05:22;25.52;;;12.27;;
33678;SDS011;23143;49.474;11.082;2023-02-24T02:05:56;24.42;;;12.23;;
33678;SDS011;23143;49.474;11.082;2023-02-24T02:06:30;25.23;;;12.88;;
33678;SDS011;23143;49.474;11.082;2023-02-24T02:07:01;31.83;;;13.85;;
33678;SDS011;23143;49.474;11.082;2023-02-24T02:07:31;29.42;;;12.23;;
33678;SDS011;23143;49.474;11.082;2023-02-24T02:08:02;42.28;;;13.18;;
33678;SDS011;23143;49.474;11.082;2023-02-24T02:08:34;30.10;;;12.93;;
33678;SDS011;23143;49.474;11.082;2023-02-24T02:09:08;30.98;;;12.88;;
33678;SDS011;23143;49.474;11.082;2023-02-24T02:09:38;28.40;;;13.07;;
33678;SDS011;23143;49.474;11.082;2023-02-24T02:10:12;30.83;;;12.45;;
33678;SDS011;23143;49.474;11.082;2023-02-24T02:10:44;31.35;;;14.13;;
33678;SDS011;23143;49.474;11.082;2023-02-24T02:11:15;32.30;;;12.27;;
33678;SDS011;23143;49.474;11.082;2023-02-24T02:11:49;32.97;;;14.05;;
33678;SDS011;23143;49.474;11.082;2023-02-24T02:12:20;29.48;;;13.45;;
33678;SDS011;23143;49.474;11.082;2023-02-24T02:12:51;28.00;;;12.93;;
33678;SDS011;23143;49.474;11.082;2023-02-24T02:13:22;33.83;;;13.57;;
33678;SDS011;23143;49.474;11.082;2023-02-24T02:13:53;28.35;;;13.57;;
33678;SDS011;23143;49.474;11.082;2023-02-24T02:14:26;33.22;;;13.82;;
33678;SDS011;23143;49.474;11.082;2023-02-24T02:14:57;31.48;;;14.27;;
33678;SDS011;23143;49.474;11.082;2023-02-24T02:15:28;30.98;;;13.57;;
33678;SDS011;23143;49.474;11.082;2023-02-24T02:17:18;27.17;;;11.90;;
33678;SDS011;23143;49.474;11.082;2023-02-24T02:18:05;37.47;;;13.95;;
33678;SDS011;23143;49.474;11.082;2023-02-24T02:22:25;26.40;;;13.18;;
33678;SDS011;23143;49.474;11.082;2023-02-24T02:30:37;27.35;;;12.93;;
33678;SDS011;23143;49.474;11.082;2023-02-24T02:35:18;32.78;;;13.15;;
33678;SDS011;23143;49.474;11.082;2023-02-24T02:36:04;28.75;;;12.60;;
33678;SDS011;23143;49.474;11.082;2023-02-24T02:36:53;29.80;;;12.90;;
33678;SDS011;23143;49.474;11.082;2023-02-24T02:37:33;29.58;;;13.07;;
33678;SDS011;23143;49.474;11.082;2023-02-24T02:38:12;26.90;;;13.30;;
33678;SDS011;23143;49.474;11.082;2023-02-24T02:38:52;32.22;;;14.13;;
33678;SDS011;23143;49.474;11.082;2023-02-24T02:40:32;31.05;;;13.07;;
33678;SDS011;23143;49.474;11.082;2023-02-24T02:41:53;34.75;;;14.10;;
33678;SDS011;23143;49.474;11.082;2023-02-24T02:43:46;24.80;;;12.27;;
33678;SDS011;23143;49.474;11.082;2023-02-24T02:44:29;28.48;;;13.75;;
33678;SDS011;23143;49.474;11.082;2023-02-24T02:45:07;27.80;;;12.73;;
33678;SDS011;23143;49.474;11.082;2023-02-24T02:46:40;32.58;;;12.02;;
33678;SDS011;23143;49.474;11.082;2023-02-24T02:47:17;27.27;;;14.35;;
33678;SDS011;23143;49.474;11.082;2023-02-24T02:48:00;29.35;;;13.15;;
33678;SDS011;23143;49.474;11.082;2023-02-24T02:48:56;29.90;;;13.57;;
33678;SDS011;23143;49.474;11.082;2023-02-24T02:50:12;25.00;;;12.85;;
33678;SDS011;23143;49.474;11.082;2023-02-24T02:51:03;27.63;;;12.10;;
33678;SDS011;23143;49.474;11.082;2023-02-24T02:51:41;25.30;;;12.15;;
33678;SDS011;23143;49.474;11.082;2023-02-24T02:52:23;26.70;;;13.65;;
33678;SDS011;23143;49.474;11.082;2023-02-24T02:53:09;35.53;;;14.25;;
33678;SDS011;23143;49.474;11.082;2023-02-24T02:55:17;31.63;;;14.35;;
33678;SDS011;23143;49.474;11.082;2023-02-24T02:56:19;25.25;;;13.45;;
33678;SDS011;23143;49.474;11.082;2023-02-24T02:56:58;31.98;;;12.77;;
33678;SDS011;23143;49.474;11.082;2023-02-24T02:57:34;29.13;;;12.73;;
33678;SDS011;23143;49.474;11.082;2023-02-24T02:58:09;29.65;;;13.40;;
33678;SDS011;23143;49.474;11.082;2023-02-24T02:58:50;27.08;;;12.02;;
33678;SDS011;23143;49.474;11.082;2023-02-24T02:59:25;32.65;;;14.73;;
33678;SDS011;23143;49.474;11.082;2023-02-24T03:00:44;30.20;;;13.60;;
33678;SDS011;23143;49.474;11.082;2023-02-24T03:01:28;28.27;;;13.82;;
33678;SDS011;23143;49.474;11.082;2023-02-24T03:02:02;29.20;;;13.73;;
33678;SDS011;23143;49.474;11.082;2023-02-24T03:02:44;31.00;;;12.60;;
33678;SDS011;23143;49.474;11.082;2023-02-24T03:03:17;37.05;;;13.57;;
33678;SDS011;23143;49.474;11.082;2023-02-24T03:03:50;30.70;;;13.80;;
33678;SDS011;23143;49.474;11.082;2023-02-24T03:04:22;29.20;;;14.52;;
33678;SDS011;23143;49.474;11.082;2023-02-24T03:04:55;29.92;;;13.55;;
33678;SDS011;23143;49.474;11.082;2023-02-24T03:05:35;23.77;;;12.65;;
33678;SDS011;23143;49.474;11.082;2023-02-24T03:06:56;30.98;;;13.82;;
33678;SDS011;23143;49.474;11.082;2023-02-24T03:07:30;30.80;;;14.15;;
33678;SDS011;23143;49.474;11.082;2023-02-24T03:08:04;29.73;;;14.38;;
33678;SDS011;23143;49.474;11.082;2023-02-24T03:08:40;37.00;;;14.32;;
33678;SDS011;23143;49.474;11.082;2023-02-24T03:09:16;35.47;;;15.70;;
33678;SDS011;23143;49.474;11.082;2023-02-24T03:09:50;31.17;;;14.35;;
33678;SDS011;23143;49.474;11.082;2023-02-24T03:10:26;35.80;;;14.70;;
33678;SDS011;23143;49.474;11.082;2023-02-24T03:10:59;31.45;;;15.98;;
33678;SDS011;23143;49.474;11.082;2023-02-24T03:11:30;35.47;;;14.52;;
33678;SDS011;23143;49.474;11.082;2023-02-24T03:12:06;36.55;;;15.13;;
33678;SDS011;23143;49.474;11.082;2023-02-24T03:12:39;36.33;;;15.38;;
33678;SDS011;23143;49.474;11.082;2023-02-24T03:13:10;42.67;;;16.00;;
33678;SDS011;23143;49.474;11.082;2023-02-24T03:13:42;34.10;;;16.77;;
33678;SDS011;23143;49.474;11.082;2023-02-24T03:14:15;34.13;;;15.32;;
33678;SDS011;23143;49.474;11.082;2023-02-24T03:14:58;32.45;;;13.95;;
33678;SDS011;23143;49.474;11.082;2023-02-24T03:15:31;38.30;;;15.18;;
33678;SDS011;23143;49.474;11.082;2023-02-24T03:16:02;32.70;;;14.15;;
33678;SDS011;23143;49.474;11.082;2023-02-24T03:16:33;31.70;;;15.15;;
33678;SDS011;23143;49.474;11.082;2023-02-24T03:17:05;36.92;;;15.48;;
33678;SDS011;23143;49.474;11.082;2023-02-24T03:17:52;30.42;;;13.38;;
33678;SDS011;23143;49.474;11.082;2023-02-24T03:18:26;31.75;;;15.18;;
33678;SDS011;23143;49.474;11.082;2023-02-24T03:19:02;38.45;;;16.17;;
33678;SDS011;23143;49.474;11.082;2023-02-24T03:19:34;38.40;;;16.25;;
33678;SDS011;23143;49.474;11.082;2023-02-24T03:20:18;41.22;;;18.40;;
33678;SDS011;23143;49.474;11.082;2023-02-24T03:20:58;44.92;;;17.33;;
33678;SDS011;23143;49.474;11.082;2023-02-24T03:21:40;47.33;;;19.25;;
33678;SDS011;23143;49.474;11.082;2023-02-24T03:22:18;57.38;;;22.10;;
33678;SDS011;23143;49.474;11.082;2023-02-24T03:23:22;46.60;;;20.65;;
33678;SDS011;23143;49.474;11.082;2023-02-24T03:23:56;52.90;;;19.42;;
33678;SDS011;23143;49.474;11.082;2023-02-24T03:24:26;47.70;;;18.63;;
33678;SDS011;23143;49.474;11.082;2023-02-24T03:24:57;43.28;;;18.58;;
33678;SDS011;23143;49.474;11.082;2023-02-24T03:25:35;48.13;;;19.58;;
33678;SDS011;23143;49.474;11.082;2023-02-24T03:27:05;47.55;;;18.20;;
33678;SDS011;23143;49.474;11.082;2023-02-24T03:27:49;48.30;;;17.75;;
33678;SDS011;23143;49.474;11.082;2023-02-24T03:28:35;33.13;;;15.82;;
33678;SDS011;23143;49.474;11.082;2023-02-24T03:29:13;36.95;;;16.23;;
33678;SDS011;23143;49.474;11.082;2023-02-24T03:30:40;38.83;;;13.90;;
33678;SDS011;23143;49.474;11.082;2023-02-24T03:31:21;35.50;;;15.57;;
33678;SDS011;23143;49.474;11.082;2023-02-24T03:31:59;30.85;;;15.23;;
33678;SDS011;23143;49.474;11.082;2023-02-24T03:32:44;34.95;;;14.27;;
33678;SDS011;23143;49.474;11.082;2023-02-24T03:33:30;29.52;;;12.18;;
33678;SDS011;23143;49.474;11.082;2023-02-24T03:34:09;23.85;;;13.10;;
33678;SDS011;23143;49.474;11.082;2023-02-24T03:34:52;27.63;;;14.13;;
33678;SDS011;23143;49.474;11.082;2023-02-24T03:35:30;27.23;;;13.63;;
33678;SDS011;23143;49.474;11.082;2023-02-24T03:36:03;29.10;;;12.95;;
33678;SDS011;23143;49.474;11.082;2023-02-24T03:36:34;36.38;;;13.80;;
33678;SDS011;23143;49.474;11.082;2023-02-24T03:37:05;41.47;;;15.35;;
33678;SDS011;23143;49.474;11.082;2023-02-24T03:37:36;35.15;;;14.70;;
33678;SDS011;23143;49.474;11.082;2023-02-24T03:38:07;35.47;;;14.00;;
33678;SDS011;23143;49.474;11.082;2023-02-24T03:38:39;32.03;;;13.90;;
33678;SDS011;23143;49.474;11.082;2023-02-24T03:39:11;34.20;;;14.63;;
33678;SDS011;23143;49.474;11.082;2023-02-24T03:39:44;26.40;;;13.27;;
33678;SDS011;23143;49.474;11.082;2023-02-24T03:40:16;32.10;;;12.95;;
33678;SDS011;23143;49.474;11.082;2023-02-24T03:40:47;28.90;;;14.27;;
33678;SDS011;23143;49.474;11.082;2023-02-24T03:41:18;31.15;;;12.65;;
33678;SDS011;23143;49.474;11.082;2023-02-24T03:41:59;36.25;;;15.43;;
33678;SDS011;23143;49.474;11.082;2023-02-24T03:42:33;31.45;;;14.07;;
33678;SDS011;23143;49.474;11.082;2023-02-24T03:43:05;38.25;;;14.50;;
33678;SDS011;23143;49.474;11.082;2023-02-24T03:43:42;34.65;;;15.88;;
33678;SDS011;23143;49.474;11.082;2023-02-24T03:44:14;30.75;;;14.30;;
33678;SDS011;23143;49.474;11.082;2023-02-24T03:44:45;40.95;;;14.70;;
33678;SDS011;23143;49.474;11.082;2023-02-24T03:45:16;34.08;;;14.65;;
33678;SDS011;23143;49.474;11.082;2023-02-24T03:45:48;28.27;;;13.90;;
33678;SDS011;23143;49.474;11.082;2023-02-24T03:46:19;29.17;;;13.98;;
33678;SDS011;23143;49.474;11.082;2023-02-24T03:46:50;35.58;;;13.45;;